Time;durP1;ratioP1;P1;durP2;ratioP2;P2;SDS_P1;SDS_P2;PMS_P1;PMS_P2;Temp;Humidity;BMP_temperature;BMP_pressure;BME280_temperature;BME280_humidity;BME280_pressure;Samples;Min_cycle;Max_cycle;Signal;HPM_P1;HPM_P2
2023/03/12 00:01:50;;;;;;;75.85;12.00;;;1.90;92.00;;;;;;5038529;28;20189;-82
2023/03/12 00:04:15;;;;;;;78.60;12.47;;;1.90;93.00;;;;;;5038461;28;20537;-82
2023/03/12 00:06:41;;;;;;;71.40;9.90;;;2.00;92.90;;;;;;5038821;28;20755;-82
2023/03/12 00:09:08;;;;;;;78.13;10.73;;;1.90;92.30;;;;;;5039028;28;20166;-82
2023/03/12 00:11:34;;;;;;;72.90;11.25;;;1.90;93.00;;;;;;5020470;28;20582;-80
2023/03/12 00:14:00;;;;;;;74.40;12.25;;;1.90;93.40;;;;;;5038303;28;20231;-79
2023/03/12 00:16:32;;;;;;;74.93;11.30;;;1.90;93.60;;;;;;5020394;28;20165;-79
2023/03/12 00:18:57;;;;;;;76.90;11.32;;;1.90;92.70;;;;;;5038267;28;20228;-79
2023/03/12 00:21:24;;;;;;;75.77;11.70;;;1.80;92.70;;;;;;5020556;28;20173;-82
2023/03/12 00:24:20;;;;;;;75.63;11.27;;;1.80;90.40;;;;;;5037881;28;20573;-82
2023/03/12 00:26:45;;;;;;;74.40;10.45;;;1.80;90.60;;;;;;5020161;28;20173;-82
2023/03/12 00:29:11;;;;;;;74.17;11.40;;;1.80;88.30;;;;;;5037918;28;20575;-82
2023/03/12 00:31:36;;;;;;;74.53;10.50;;;1.80;84.50;;;;;;5037188;28;20196;-81
2023/03/12 00:34:02;;;;;;;72.83;10.23;;;1.80;82.70;;;;;;5037734;28;20214;-80
2023/03/12 00:36:31;;;;;;;73.27;11.20;;;1.80;81.90;;;;;;5037826;28;20533;-79
2023/03/12 00:38:58;;;;;;;72.05;11.18;;;1.80;78.60;;;;;;5021077;28;20180;-79
2023/03/12 00:41:25;;;;;;;75.30;9.95;;;1.90;74.20;;;;;;5036028;28;20641;-79
2023/03/12 00:44:02;;;;;;;77.43;10.63;;;1.90;73.70;;;;;;5036195;28;20212;-79
2023/03/12 00:46:32;;;;;;;73.60;10.88;;;1.90;67.50;;;;;;5034616;28;20180;-79
2023/03/12 00:49:13;;;;;;;71.43;10.05;;;1.90;68.00;;;;;;5035742;28;20160;-79
2023/03/12 00:51:47;;;;;;;71.82;9.93;;;1.90;64.40;;;;;;5037285;28;20221;-79
2023/03/12 00:54:36;;;;;;;72.75;10.43;;;1.90;61.00;;;;;;5036667;28;20164;-79
2023/03/12 00:57:19;;;;;;;76.38;10.95;;;1.90;56.10;;;;;;5032201;28;20177;-79
2023/03/12 01:00:11;;;;;;;74.75;9.20;;;1.90;57.20;;;;;;5036782;28;20152;-79
2023/03/12 01:03:31;;;;;;;76.45;8.82;;;1.90;58.20;;;;;;5095100;23;20633;-79
2023/03/12 01:06:12;;;;;;;;;;;;;;;;;;;;;
2023/03/12 01:08:44;;;;;;;74.28;10.00;;;1.90;58.30;;;;;;5034622;28;20179;-79
2023/03/12 01:11:37;;;;;;;71.35;8.40;;;2.00;58.00;;;;;;5036131;28;20192;-79
2023/03/12 01:14:09;;;;;;;74.93;9.40;;;2.00;56.90;;;;;;5015587;28;20206;-79
2023/03/12 01:17:44;;;;;;;;;;;;;;;;;;;;;
2023/03/12 01:20:10;;;;;;;71.97;8.65;;;1.90;57.60;;;;;;4987375;28;20185;-79
2023/03/12 01:23:00;;;;;;;71.03;9.75;;;2.00;61.10;;;;;;5016482;28;20554;-79
2023/03/12 01:25:25;;;;;;;77.18;9.82;;;2.00;63.10;;;;;;5015734;28;20182;-79
2023/03/12 01:27:51;;;;;;;68.20;7.80;;;2.00;59.10;;;;;;5016131;28;20174;-79
2023/03/12 01:30:17;;;;;;;70.13;8.63;;;2.00;59.00;;;;;;5015028;28;20194;-79
2023/03/12 01:32:42;;;;;;;70.47;9.10;;;2.00;60.40;;;;;;5016309;28;20253;-79
2023/03/12 01:35:08;;;;;;;71.00;8.73;;;2.00;56.70;;;;;;5016887;28;20162;-79
2023/03/12 01:37:35;;;;;;;71.10;8.40;;;2.00;50.90;;;;;;5016484;28;20568;-78
2023/03/12 01:40:01;;;;;;;68.70;7.97;;;2.10;48.60;;;;;;5015954;28;20169;-79
2023/03/12 01:42:27;;;;;;;68.50;7.10;;;2.10;50.00;;;;;;5015482;28;20530;-79
2023/03/12 01:44:54;;;;;;;69.87;8.07;;;2.10;41.80;;;;;;5015793;28;20899;-79
2023/03/12 01:47:22;;;;;;;73.10;8.25;;;2.10;42.30;;;;;;5015931;28;20184;-79
2023/03/12 01:49:51;;;;;;;70.45;7.93;;;2.10;39.10;;;;;;5015375;28;20224;-79
2023/03/12 01:52:21;;;;;;;69.25;7.97;;;2.10;40.00;;;;;;5015124;28;20593;-79
2023/03/12 01:54:54;;;;;;;67.90;7.80;;;2.10;36.70;;;;;;5015519;28;20533;-79
2023/03/12 01:57:46;;;;;;;70.70;8.18;;;2.10;37.70;;;;;;4997685;28;20568;-79
2023/03/12 02:00:20;;;;;;;70.20;8.52;;;2.10;38.30;;;;;;5015803;28;20200;-79
2023/03/12 02:02:48;;;;;;;68.13;8.68;;;2.10;36.60;;;;;;5015399;28;20182;-79
2023/03/12 02:05:16;;;;;;;67.47;7.75;;;2.10;37.10;;;;;;5015016;28;20201;-79
2023/03/12 02:07:42;;;;;;;69.05;8.05;;;2.10;39.50;;;;;;5015615;28;20173;-79
2023/03/12 02:10:08;;;;;;;66.60;7.47;;;2.10;40.20;;;;;;5015438;28;20656;-79
2023/03/12 02:12:34;;;;;;;71.35;8.48;;;2.10;40.00;;;;;;5014978;28;20186;-79
2023/03/12 02:15:00;;;;;;;67.47;7.50;;;2.20;41.20;;;;;;5015378;28;20276;-79
2023/03/12 02:17:25;;;;;;;70.57;8.63;;;2.20;43.70;;;;;;5015129;28;20172;-79
2023/03/12 02:20:32;;;;;;;68.27;8.33;;;2.20;43.40;;;;;;5015247;28;20162;-79
2023/03/12 02:23:19;;;;;;;69.72;7.30;;;2.20;41.90;;;;;;5012228;28;20661;-79
2023/03/12 02:25:49;;;;;;;70.53;8.05;;;2.10;45.60;;;;;;5019236;28;20154;-79
2023/03/12 02:28:17;;;;;;;68.57;7.05;;;2.10;48.40;;;;;;5019114;28;20568;-79
2023/03/12 02:30:47;;;;;;;68.45;7.22;;;2.10;49.30;;;;;;5018922;28;20197;-79
2023/03/12 02:33:14;;;;;;;70.95;8.80;;;2.20;49.20;;;;;;5019351;28;20206;-79
2023/03/12 02:35:40;;;;;;;69.47;8.45;;;2.20;51.30;;;;;;5018837;28;20185;-79
2023/03/12 02:38:32;;;;;;;72.80;8.27;;;2.30;49.70;;;;;;5000976;28;20173;-78
2023/03/12 02:41:02;;;;;;;67.78;7.28;;;2.30;49.10;;;;;;5018646;28;20166;-79
2023/03/12 02:43:28;;;;;;;75.22;8.90;;;2.20;48.30;;;;;;5019125;28;20186;-79
2023/03/12 02:45:54;;;;;;;78.33;6.10;;;2.30;49.10;;;;;;5001251;28;20181;-79
2023/03/12 02:48:21;;;;;;;72.50;7.88;;;2.30;45.40;;;;;;5018891;28;20404;-79
2023/03/12 02:50:46;;;;;;;68.53;8.20;;;2.30;44.60;;;;;;5019177;28;20190;-79
2023/03/12 02:53:12;;;;;;;70.37;6.97;;;2.40;42.80;;;;;;5019649;28;20195;-79
2023/03/12 02:55:38;;;;;;;68.23;7.67;;;2.40;41.60;;;;;;5018881;28;20173;-79
2023/03/12 02:58:03;;;;;;;78.80;7.80;;;2.40;44.80;;;;;;5018722;28;20396;-79
2023/03/12 03:03:02;;;;;;;70.95;7.32;;;2.50;47.20;;;;;;5281442;23;20267;-80
2023/03/12 03:05:28;;;;;;;70.07;8.40;;;2.50;46.70;;;;;;5058535;28;20164;-79
2023/03/12 03:07:54;;;;;;;68.70;7.60;;;2.50;50.60;;;;;;5058356;28;20427;-79
2023/03/12 03:10:19;;;;;;;68.60;7.20;;;2.50;53.50;;;;;;5058279;28;20603;-79
2023/03/12 03:12:45;;;;;;;67.00;7.17;;;2.50;52.10;;;;;;5058330;28;20195;-79
2023/03/12 03:15:17;;;;;;;72.75;8.90;;;2.50;52.00;;;;;;5057601;28;20167;-79
2023/03/12 03:17:42;;;;;;;70.22;7.25;;;2.50;52.70;;;;;;5058090;28;20208;-79
2023/03/12 03:20:11;;;;;;;71.20;8.27;;;2.60;56.00;;;;;;5039922;28;20177;-79
2023/03/12 03:22:38;;;;;;;68.22;7.38;;;2.60;53.10;;;;;;5058719;28;20215;-79
2023/03/12 03:25:05;;;;;;;70.72;7.95;;;2.60;52.70;;;;;;5057964;28;20237;-79
2023/03/12 03:27:31;;;;;;;68.57;7.75;;;2.60;52.40;;;;;;5058654;28;20168;-79
2023/03/12 03:29:56;;;;;;;71.30;7.60;;;2.60;53.80;;;;;;5057821;28;20244;-79
2023/03/12 03:32:22;;;;;;;72.03;7.83;;;2.60;55.00;;;;;;5057307;28;20639;-79
2023/03/12 03:34:50;;;;;;;74.37;8.20;;;2.60;56.40;;;;;;5057638;28;20160;-79
2023/03/12 03:37:16;;;;;;;74.82;7.53;;;2.60;54.00;;;;;;5057373;28;20165;-79
2023/03/12 03:39:42;;;;;;;70.00;7.63;;;2.60;51.00;;;;;;5058068;28;20691;-78
2023/03/12 03:42:08;;;;;;;68.20;6.90;;;2.60;48.60;;;;;;5057163;28;20547;-79
2023/03/12 03:44:33;;;;;;;69.03;7.32;;;2.60;47.50;;;;;;5057373;28;20165;-79
2023/03/12 03:46:59;;;;;;;70.40;7.20;;;2.60;43.40;;;;;;5039878;28;20179;-79
2023/03/12 03:49:24;;;;;;;66.30;6.00;;;2.60;42.70;;;;;;5057248;28;20153;-79
2023/03/12 03:51:50;;;;;;;74.63;8.00;;;2.60;41.10;;;;;;5057409;28;20257;-79
2023/03/12 03:54:17;;;;;;;68.80;7.07;;;2.60;40.90;;;;;;5039746;28;20169;-78
2023/03/12 03:56:43;;;;;;;78.22;7.43;;;2.60;44.30;;;;;;5057216;28;20403;-79
2023/03/12 03:59:08;;;;;;;76.15;8.68;;;2.60;44.50;;;;;;5039278;28;20556;-79
2023/03/12 04:01:35;;;;;;;69.00;6.87;;;2.60;46.20;;;;;;5057109;28;20173;-78
2023/03/12 04:04:02;;;;;;;68.00;6.15;;;2.60;41.00;;;;;;5057150;28;20220;-79
2023/03/12 04:06:28;;;;;;;69.05;7.75;;;2.60;39.00;;;;;;5057077;28;20169;-79
2023/03/12 04:08:55;;;;;;;69.07;6.10;;;2.60;34.90;;;;;;5056602;28;20161;-79
2023/03/12 04:11:22;;;;;;;70.07;7.43;;;2.70;32.80;;;;;;5056726;28;20192;-79
2023/03/12 04:13:48;;;;;;;68.40;7.20;;;2.70;33.30;;;;;;5057071;28;20656;-79
2023/03/12 04:16:15;;;;;;;69.10;6.95;;;2.70;34.10;;;;;;5057071;28;20652;-79
2023/03/12 04:18:41;;;;;;;67.93;6.55;;;2.70;29.90;;;;;;5057001;28;20531;-79
2023/03/12 04:21:09;;;;;;;66.47;6.17;;;2.80;25.70;;;;;;5057168;28;20247;-79
2023/03/12 04:23:35;;;;;;;68.05;6.45;;;2.70;27.80;;;;;;5056804;28;20418;-79
2023/03/12 04:26:01;;;;;;;67.97;6.90;;;2.80;27.60;;;;;;5056919;28;20509;-79
2023/03/12 04:28:27;;;;;;;68.77;6.70;;;2.70;27.80;;;;;;5056828;28;20173;-79
2023/03/12 04:31:01;;;;;;;69.00;6.10;;;2.80;32.00;;;;;;5056723;28;20496;-79
2023/03/12 04:33:29;;;;;;;75.88;7.75;;;2.80;30.50;;;;;;5056531;28;20183;-79
2023/03/12 04:35:56;;;;;;;71.65;6.60;;;2.80;29.80;;;;;;5056795;28;20218;-79
2023/03/12 04:38:23;;;;;;;70.10;6.90;;;2.80;31.80;;;;;;5056605;28;20689;-79
2023/03/12 04:41:11;;;;;;;67.03;6.82;;;2.70;38.20;;;;;;5056648;28;20251;-79
2023/03/12 04:43:37;;;;;;;71.45;6.72;;;2.70;49.70;;;;;;5055320;28;20196;-79
2023/03/12 04:46:03;;;;;;;70.17;6.50;;;2.60;58.90;;;;;;5055954;28;20160;-79
2023/03/12 04:48:29;;;;;;;71.75;7.20;;;2.60;69.10;;;;;;5056082;28;20247;-80
2023/03/12 04:50:55;;;;;;;68.30;7.13;;;2.50;79.20;;;;;;5056031;28;20227;-79
2023/03/12 04:53:21;;;;;;;71.03;7.57;;;2.50;86.60;;;;;;5056207;28;20427;-79
2023/03/12 04:55:46;;;;;;;68.25;7.10;;;2.50;91.40;;;;;;5038026;28;20169;-79
2023/03/12 04:58:12;;;;;;;69.00;7.10;;;2.50;94.70;;;;;;5055731;28;20179;-79
2023/03/12 05:00:40;;;;;;;68.10;7.30;;;2.40;99.90;;;;;;5055302;28;20226;-78
2023/03/12 05:03:06;;;;;;;71.50;11.55;;;2.40;99.90;;;;;;5055073;28;20299;-78
2023/03/12 05:05:32;;;;;;;68.35;9.77;;;2.30;99.90;;;;;;5054900;28;20188;-78
2023/03/12 05:07:58;;;;;;;72.13;15.55;;;2.30;99.90;;;;;;5054702;28;20195;-78
2023/03/12 05:10:24;;;;;;;70.57;16.83;;;2.20;99.90;;;;;;5036844;28;20220;-78
2023/03/12 05:12:50;;;;;;;76.90;22.05;;;2.20;99.90;;;;;;5037016;28;20459;-78
2023/03/12 05:15:16;;;;;;;78.40;19.47;;;2.20;99.90;;;;;;5054953;28;20175;-78
2023/03/12 05:17:43;;;;;;;73.95;20.65;;;2.20;99.90;;;;;;5054424;28;20187;-78
2023/03/12 05:20:09;;;;;;;73.80;24.33;;;2.20;99.90;;;;;;5054585;28;20168;-78
2023/03/12 05:22:35;;;;;;;72.80;21.77;;;2.20;99.90;;;;;;5054492;28;20188;-78
2023/03/12 05:25:02;;;;;;;73.53;16.77;;;2.20;99.90;;;;;;5037157;28;20532;-78
2023/03/12 05:27:28;;;;;;;74.68;20.25;;;2.20;99.90;;;;;;5054255;28;20157;-78
2023/03/12 05:29:53;;;;;;;75.23;16.47;;;2.20;99.90;;;;;;5054431;28;20167;-78
2023/03/12 05:32:19;;;;;;;75.97;16.50;;;2.20;99.90;;;;;;5054229;28;20787;-78
2023/03/12 05:34:44;;;;;;;69.10;16.80;;;2.30;99.90;;;;;;5054136;28;20583;-78
2023/03/12 05:37:10;;;;;;;71.23;13.17;;;2.30;99.90;;;;;;5054088;28;20555;-78
2023/03/12 05:39:36;;;;;;;68.97;12.73;;;2.30;99.90;;;;;;5120168;22;20283;-85
2023/03/12 05:42:03;;;;;;;69.60;13.32;;;2.30;99.90;;;;;;5042575;28;20736;-85
2023/03/12 05:44:29;;;;;;;68.15;12.60;;;2.30;99.90;;;;;;5025773;28;20196;-85
2023/03/12 05:46:55;;;;;;;71.80;12.67;;;2.30;99.90;;;;;;5043918;28;20166;-85
2023/03/12 05:49:21;;;;;;;71.80;13.20;;;2.20;99.90;;;;;;5043712;28;20165;-85
2023/03/12 05:51:48;;;;;;;73.00;15.65;;;2.30;99.90;;;;;;5025574;28;20707;-85
2023/03/12 05:54:16;;;;;;;72.78;13.60;;;2.30;99.90;;;;;;5043687;28;20244;-85
2023/03/12 05:56:41;;;;;;;71.55;12.40;;;2.30;99.90;;;;;;5031495;28;20176;-85
2023/03/12 05:59:09;;;;;;;78.00;12.30;;;2.20;99.90;;;;;;5033672;28;20177;-85
2023/03/12 06:01:35;;;;;;;70.40;10.88;;;2.20;99.90;;;;;;5050849;28;20503;-85
2023/03/12 06:04:01;;;;;;;70.40;11.73;;;2.20;99.90;;;;;;5034756;28;20169;-85
2023/03/12 06:06:30;;;;;;;73.40;11.60;;;2.20;99.90;;;;;;5052846;28;20311;-85
2023/03/12 06:08:56;;;;;;;69.80;10.32;;;2.20;99.90;;;;;;5053431;28;20171;-85
2023/03/12 06:11:22;;;;;;;69.37;12.00;;;2.20;99.90;;;;;;5053999;28;20248;-85
2023/03/12 06:13:47;;;;;;;71.97;11.80;;;2.30;99.90;;;;;;5036959;28;20196;-85
2023/03/12 06:16:26;;;;;;;70.00;10.83;;;2.30;99.90;;;;;;5055402;28;20494;-85
2023/03/12 06:18:54;;;;;;;68.40;9.85;;;2.40;99.90;;;;;;5038222;28;20196;-85
2023/03/12 06:21:22;;;;;;;73.07;10.10;;;2.40;99.90;;;;;;5038607;28;20173;-85
2023/03/12 06:23:48;;;;;;;71.15;12.40;;;2.40;99.90;;;;;;5054952;28;20189;-85
2023/03/12 06:26:15;;;;;;;68.60;10.57;;;2.40;99.90;;;;;;5038132;28;20169;-85
2023/03/12 06:28:42;;;;;;;70.20;10.82;;;2.40;99.90;;;;;;5037356;28;20232;-85
2023/03/12 06:31:11;;;;;;;68.80;10.93;;;2.50;99.90;;;;;;5037274;28;20223;-84
2023/03/12 06:33:43;;;;;;;69.90;12.55;;;2.40;99.90;;;;;;5036030;28;20252;-84
2023/03/12 06:36:13;;;;;;;73.32;13.13;;;2.40;99.90;;;;;;5035751;28;20656;-84
2023/03/12 06:38:39;;;;;;;71.15;12.23;;;2.50;99.90;;;;;;5036619;28;20196;-84
2023/03/12 06:41:19;;;;;;;69.22;12.25;;;2.60;99.90;;;;;;5035902;28;20192;-84
2023/03/12 06:44:05;;;;;;;;;;;;;;;;;;;;;
2023/03/12 06:46:39;;;;;;;71.68;14.32;;;2.50;99.90;;;;;;5054110;28;20169;-84
2023/03/12 06:49:11;;;;;;;69.35;13.18;;;2.50;99.90;;;;;;5036418;28;20196;-84
2023/03/12 06:51:40;;;;;;;73.35;11.65;;;2.50;99.90;;;;;;5036483;28;20254;-84
2023/03/12 06:54:09;;;;;;;70.57;11.65;;;2.50;99.90;;;;;;5036704;28;20165;-84
2023/03/12 06:56:38;;;;;;;69.43;11.32;;;2.50;99.90;;;;;;5053221;28;20165;-84
2023/03/12 06:59:08;;;;;;;71.47;11.15;;;2.60;99.90;;;;;;5035347;28;20659;-84
2023/03/12 07:01:42;;;;;;;74.72;11.20;;;2.60;99.90;;;;;;5036501;28;20166;-84
2023/03/12 07:04:11;;;;;;;68.97;9.73;;;2.60;99.90;;;;;;5034970;28;20232;-85
2023/03/12 07:07:17;;;;;;;;;;;;;;;;;;;;;
2023/03/12 07:09:54;;;;;;;68.03;10.60;;;2.60;99.90;;;;;;5050240;28;20187;-84
2023/03/12 07:12:20;;;;;;;79.85;11.98;;;2.60;99.90;;;;;;5033208;28;20333;-85
2023/03/12 07:14:49;;;;;;;72.28;11.57;;;2.60;99.90;;;;;;5032313;28;20199;-84
2023/03/12 07:17:18;;;;;;;69.22;10.40;;;2.60;99.90;;;;;;5049644;28;20165;-84
2023/03/12 07:19:50;;;;;;;71.22;10.75;;;2.60;99.90;;;;;;5033876;28;20165;-84
2023/03/12 07:22:23;;;;;;;69.25;10.80;;;2.60;99.90;;;;;;5051357;28;20200;-84
2023/03/12 07:24:54;;;;;;;71.60;10.38;;;2.70;99.90;;;;;;5050337;28;20145;-84
2023/03/12 07:27:20;;;;;;;74.25;11.50;;;2.70;99.90;;;;;;5050160;28;20191;-85
2023/03/12 07:29:45;;;;;;;69.57;9.80;;;2.70;99.90;;;;;;5050636;28;20168;-85
2023/03/12 07:32:17;;;;;;;70.75;9.80;;;2.70;99.90;;;;;;5050592;28;20420;-84
2023/03/12 07:34:47;;;;;;;68.85;10.55;;;2.70;99.90;;;;;;5033039;28;20196;-84
2023/03/12 07:37:28;;;;;;;67.65;10.40;;;2.70;99.90;;;;;;5032902;28;20261;-84
2023/03/12 07:39:54;;;;;;;70.80;10.25;;;2.80;99.90;;;;;;5033215;28;20160;-85
2023/03/12 07:42:23;;;;;;;70.20;11.35;;;2.80;99.90;;;;;;5032914;28;20551;-84
2023/03/12 07:45:07;;;;;;;68.68;8.45;;;2.80;99.90;;;;;;5049721;28;20173;-84
2023/03/12 07:47:33;;;;;;;67.22;9.05;;;2.90;99.90;;;;;;5032855;28;20208;-84
2023/03/12 07:50:00;;;;;;;69.17;8.97;;;3.00;99.90;;;;;;5050649;28;20177;-84
2023/03/12 07:52:26;;;;;;;69.47;10.43;;;3.00;99.90;;;;;;5032527;28;20428;-84
2023/03/12 07:54:54;;;;;;;69.97;11.37;;;3.10;99.90;;;;;;5050173;28;20164;-84
2023/03/12 07:57:21;;;;;;;69.40;9.40;;;3.10;99.90;;;;;;5032858;28;20438;-84
2023/03/12 07:59:50;;;;;;;69.13;8.75;;;3.20;99.90;;;;;;5032789;28;20256;-84
2023/03/12 08:02:16;;;;;;;73.63;9.43;;;3.20;99.90;;;;;;5032827;28;20692;-84
2023/03/12 08:04:43;;;;;;;73.25;10.07;;;3.20;99.90;;;;;;5031529;28;20168;-84
2023/03/12 08:07:08;;;;;;;68.90;9.98;;;3.30;99.90;;;;;;5049861;28;20161;-84
2023/03/12 08:09:37;;;;;;;68.70;8.73;;;3.30;99.90;;;;;;5050512;28;20181;-83
2023/03/12 08:12:12;;;;;;;73.30;8.63;;;3.40;99.90;;;;;;5050865;28;20466;-84
2023/03/12 08:17:58;;;;;;;73.78;9.50;;;3.50;99.90;;;;;;5042311;28;20179;-84
2023/03/12 08:21:15;;;;;;;68.00;9.38;;;3.50;99.90;;;;;;5049639;28;20145;-84
2023/03/12 08:27:04;;;;;;;72.43;11.35;;;3.60;99.90;;;;;;5046845;28;20177;-84
2023/03/12 08:30:37;;;;;;;;;;;;;;;;;;;;;
2023/03/12 08:33:45;;;;;;;;;;;;;;;;;;;;;
2023/03/12 08:36:17;;;;;;;70.10;9.95;;;3.80;99.90;;;;;;5030166;28;20204;-84
2023/03/12 08:38:57;;;;;;;69.05;11.10;;;3.90;99.90;;;;;;5032772;28;20176;-84
2023/03/12 08:41:23;;;;;;;71.82;11.70;;;4.00;99.90;;;;;;5050626;28;20184;-84
2023/03/12 08:43:49;;;;;;;70.78;12.32;;;4.10;99.90;;;;;;5031789;28;20204;-84
2023/03/12 08:46:15;;;;;;;69.97;12.65;;;4.10;99.90;;;;;;5033047;28;20219;-84
2023/03/12 08:48:41;;;;;;;73.77;14.47;;;4.10;99.90;;;;;;5049479;28;20169;-83
2023/03/12 08:51:07;;;;;;;75.03;14.27;;;4.20;99.90;;;;;;5031301;28;20215;-84
2023/03/12 08:53:34;;;;;;;72.47;14.97;;;4.20;99.90;;;;;;5032120;28;20189;-83
2023/03/12 08:56:01;;;;;;;72.00;16.55;;;4.30;99.90;;;;;;5049441;28;20166;-83
2023/03/12 08:58:27;;;;;;;74.32;17.88;;;4.30;99.90;;;;;;5032382;28;20165;-84
2023/03/12 09:00:54;;;;;;;79.30;18.58;;;4.30;99.90;;;;;;5049833;28;20192;-83
2023/03/12 09:03:20;;;;;;;73.55;18.33;;;4.40;99.90;;;;;;5049761;28;20189;-84
2023/03/12 09:05:46;;;;;;;74.25;20.08;;;4.40;99.90;;;;;;5032423;28;20173;-84
2023/03/12 09:08:21;;;;;;;73.30;19.20;;;4.50;99.90;;;;;;5049287;28;20170;-84
2023/03/12 09:10:51;;;;;;;73.00;16.67;;;4.60;99.90;;;;;;5049250;28;20168;-84
2023/03/12 09:13:17;;;;;;;73.47;19.13;;;4.70;99.90;;;;;;5048885;28;20181;-84
2023/03/12 09:15:43;;;;;;;73.40;18.48;;;4.80;99.90;;;;;;5049318;28;20159;-84
2023/03/12 09:18:08;;;;;;;74.17;19.63;;;4.90;99.90;;;;;;5031552;28;20177;-84
2023/03/12 09:20:34;;;;;;;75.97;18.80;;;4.90;99.90;;;;;;5032329;28;20222;-83
2023/03/12 09:23:00;;;;;;;76.00;21.80;;;4.90;99.90;;;;;;5032112;28;20189;-83
2023/03/12 09:25:26;;;;;;;76.63;18.67;;;4.90;99.90;;;;;;5049209;28;20169;-83
2023/03/12 09:27:52;;;;;;;73.80;17.80;;;4.90;99.90;;;;;;5050152;28;20175;-84
2023/03/12 09:30:25;;;;;;;75.80;20.67;;;4.90;99.90;;;;;;5049458;28;20215;-84
2023/03/12 09:32:51;;;;;;;75.65;20.27;;;4.90;99.90;;;;;;5049151;28;20539;-83
2023/03/12 09:35:17;;;;;;;76.22;19.65;;;4.90;99.90;;;;;;5048370;28;20168;-85
2023/03/12 09:37:46;;;;;;;79.97;24.33;;;5.00;99.90;;;;;;5031349;28;20170;-85
2023/03/12 09:40:21;;;;;;;79.10;20.40;;;5.00;99.90;;;;;;5047569;28;20924;-84
2023/03/12 09:42:54;;;;;;;78.88;21.15;;;5.00;99.90;;;;;;5048790;28;20180;-85
2023/03/12 09:45:30;;;;;;;77.65;28.92;;;5.00;99.90;;;;;;5049386;28;20165;-85
2023/03/12 09:48:06;;;;;;;74.80;21.92;;;5.10;99.90;;;;;;5030855;28;20157;-85
2023/03/12 09:50:39;;;;;;;78.90;27.65;;;5.10;99.90;;;;;;5029659;28;20200;-85
2023/03/12 09:53:14;;;;;;;80.22;29.40;;;5.00;99.90;;;;;;5030943;28;20189;-85
2023/03/12 09:55:53;;;;;;;76.00;25.02;;;5.10;99.90;;;;;;5049363;28;20244;-86
2023/03/12 09:58:29;;;;;;;75.68;25.85;;;5.10;99.90;;;;;;5049247;28;20168;-85
2023/03/12 10:01:06;;;;;;;77.53;26.42;;;5.20;99.90;;;;;;5027540;28;20165;-85
2023/03/12 10:03:53;;;;;;;79.22;28.98;;;5.30;99.90;;;;;;5049163;28;20187;-85
2023/03/12 10:06:23;;;;;;;79.03;29.60;;;5.30;99.90;;;;;;5031568;28;20176;-84
2023/03/12 10:09:20;;;;;;;78.63;30.63;;;5.30;99.90;;;;;;5028992;28;20169;-85
2023/03/12 10:12:05;;;;;;;81.03;33.35;;;5.40;99.90;;;;;;5028493;28;20189;-85
2023/03/12 10:14:51;;;;;;;78.13;33.58;;;5.50;99.90;;;;;;5046414;28;20552;-85
2023/03/12 10:17:43;;;;;;;79.75;32.55;;;5.50;99.90;;;;;;5047581;28;20149;-85
2023/03/12 10:20:34;;;;;;;78.85;32.10;;;5.60;99.90;;;;;;5028216;28;20181;-85
2023/03/12 10:23:16;;;;;;;81.82;38.78;;;5.70;99.90;;;;;;5030523;28;20195;-85
2023/03/12 10:25:58;;;;;;;80.97;39.33;;;5.80;99.90;;;;;;5030728;28;20165;-86
2023/03/12 10:28:54;;;;;;;;;;;;;;;;;;;;;
2023/03/12 10:32:40;;;;;;;79.70;31.95;;;5.90;99.90;;;;;;5047254;28;20224;-86
2023/03/12 10:38:31;;;;;;;79.03;35.25;;;5.90;99.90;;;;;;5030727;28;20165;-87
2023/03/12 10:41:55;;;;;;;81.88;36.90;;;5.90;99.90;;;;;;5027136;28;20184;-87
2023/03/12 10:51:56;;;;;;;86.35;40.00;;;6.00;99.90;;;;;;5049733;28;20208;-86
2023/03/12 10:55:12;;;;;;;82.63;35.85;;;6.10;99.90;;;;;;4980363;28;20205;-87
2023/03/12 10:57:46;;;;;;;81.95;36.75;;;6.10;99.90;;;;;;4959676;28;20179;-87
2023/03/12 11:01:38;;;;;;;86.53;45.28;;;6.10;99.90;;;;;;4993225;28;20177;-84
2023/03/12 11:04:35;;;;;;;83.50;39.70;;;6.20;99.90;;;;;;5024912;28;20196;-84
2023/03/12 11:11:24;;;;;;;80.97;35.90;;;6.50;99.90;;;;;;4967820;28;20234;-87
2023/03/12 11:14:50;;;;;;;84.55;36.60;;;6.80;99.90;;;;;;4989552;28;20206;-87
2023/03/12 11:18:30;;;;;;;;;;;;;;;;;;;;;
2023/03/12 11:21:48;;;;;;;85.78;35.17;;;7.70;99.90;;;;;;4928738;29;20207;-85
2023/03/12 11:24:38;;;;;;;81.97;33.08;;;8.00;99.90;;;;;;5018272;28;20200;-87
2023/03/12 11:28:08;;;;;;;85.53;36.17;;;8.30;99.90;;;;;;5034900;28;20192;-87
2023/03/12 11:31:16;;;;;;;90.20;40.65;;;8.50;99.90;;;;;;5031833;28;20201;-85
2023/03/12 11:34:16;;;;;;;85.80;43.38;;;8.60;99.90;;;;;;5032477;28;20704;-86
2023/03/12 11:37:11;;;;;;;87.32;40.50;;;8.80;99.90;;;;;;5052536;28;20165;-87
2023/03/12 11:40:08;;;;;;;90.63;39.60;;;9.00;99.90;;;;;;5095503;23;20232;-79
2023/03/12 11:42:46;;;;;;;88.53;42.50;;;9.10;99.90;;;;;;5036107;28;20278;-79
2023/03/12 11:45:35;;;;;;;81.07;36.35;;;9.30;99.90;;;;;;5037201;28;20169;-80
2023/03/12 11:48:22;;;;;;;85.72;41.05;;;9.40;99.90;;;;;;5038739;28;20157;-80
2023/03/12 11:51:25;;;;;;;86.53;34.75;;;9.50;99.90;;;;;;5036832;28;20200;-79
2023/03/12 11:54:04;;;;;;;88.57;36.10;;;9.60;99.90;;;;;;5037199;28;20728;-80
2023/03/12 11:57:06;;;;;;;83.57;28.85;;;9.60;99.90;;;;;;5038700;28;20160;-80
2023/03/12 11:59:52;;;;;;;85.88;30.50;;;9.60;99.90;;;;;;5005352;28;20644;-79
2023/03/12 12:02:38;;;;;;;83.65;28.25;;;9.60;99.90;;;;;;5038717;28;20211;-80
2023/03/12 12:05:30;;;;;;;80.53;25.65;;;9.60;99.90;;;;;;5027612;28;20185;-80
2023/03/12 12:08:33;;;;;;;80.85;22.38;;;9.80;99.90;;;;;;5038477;28;20154;-80
2023/03/12 12:11:10;;;;;;;85.53;26.15;;;9.90;99.90;;;;;;5037064;28;20196;-80
2023/03/12 12:13:38;;;;;;;80.68;26.75;;;10.20;99.90;;;;;;5038119;28;20208;-80
2023/03/12 12:16:53;;;;;;;83.60;20.70;;;10.40;99.90;;;;;;5038327;28;20165;-80
2023/03/12 12:20:18;;;;;;;81.65;15.20;;;10.60;99.90;;;;;;5038958;28;20177;-80
2023/03/12 12:23:18;;;;;;;84.53;20.38;;;10.80;99.90;;;;;;5037269;28;20691;-80
2023/03/12 12:26:19;;;;;;;76.00;15.50;;;11.00;99.90;;;;;;5015396;28;20188;-80
2023/03/12 12:30:03;;;;;;;78.75;16.92;;;11.20;99.90;;;;;;5038417;28;20625;-79
2023/03/12 12:32:48;;;;;;;71.93;9.30;;;11.30;99.90;;;;;;5014934;28;20197;-80
2023/03/12 12:35:36;;;;;;;80.47;9.65;;;11.30;99.90;;;;;;5019340;28;20274;-81
2023/03/12 12:38:13;;;;;;;83.88;9.20;;;11.40;99.90;;;;;;5019009;28;20177;-81
2023/03/12 12:40:50;;;;;;;78.63;7.03;;;11.40;99.90;;;;;;5037871;28;20181;-80
2023/03/12 12:43:51;;;;;;;75.47;7.78;;;11.40;99.90;;;;;;5020279;28;20185;-80
2023/03/12 12:46:30;;;;;;;77.25;6.85;;;11.40;99.90;;;;;;4996176;28;20166;-80
2023/03/12 12:49:01;;;;;;;73.00;6.28;;;11.30;99.90;;;;;;5015975;28;20204;-80
2023/03/12 12:51:31;;;;;;;72.03;7.25;;;11.30;99.90;;;;;;5037682;28;20214;-80
2023/03/12 12:54:21;;;;;;;71.53;6.85;;;11.30;99.90;;;;;;5038055;28;20188;-80
2023/03/12 12:56:55;;;;;;;76.43;7.22;;;11.20;99.90;;;;;;5037951;28;20160;-81
2023/03/12 12:59:58;;;;;;;72.72;6.03;;;11.20;99.90;;;;;;5036488;28;20197;-81
2023/03/12 13:02:29;;;;;;;70.78;6.13;;;11.30;99.90;;;;;;5016568;28;20200;-80
2023/03/12 13:04:59;;;;;;;76.05;7.13;;;11.40;99.90;;;;;;5019010;28;20640;-80
2023/03/12 13:07:25;;;;;;;73.53;6.30;;;11.50;99.90;;;;;;5019826;28;20218;-80
2023/03/12 13:09:53;;;;;;;74.30;6.23;;;11.60;99.90;;;;;;5037144;28;20165;-80
2023/03/12 13:12:33;;;;;;;73.60;8.35;;;11.60;99.90;;;;;;5037354;28;20560;-80
2023/03/12 13:15:01;;;;;;;77.13;6.60;;;11.50;99.90;;;;;;5036283;28;20625;-81
2023/03/12 13:17:57;;;;;;;72.45;7.75;;;11.60;99.90;;;;;;5036082;28;20538;-80
2023/03/12 13:20:32;;;;;;;74.22;8.10;;;11.60;99.90;;;;;;5019116;28;20539;-80
2023/03/12 13:23:10;;;;;;;75.40;7.38;;;11.60;99.90;;;;;;5037543;28;20723;-80
2023/03/12 13:25:56;;;;;;;79.43;7.88;;;11.60;99.90;;;;;;5036975;28;20169;-80
2023/03/12 13:28:39;;;;;;;78.25;7.80;;;11.60;99.90;;;;;;5019441;28;20178;-80
2023/03/12 13:31:20;;;;;;;75.53;7.60;;;11.60;99.90;;;;;;5035901;28;20212;-80
2023/03/12 13:33:50;;;;;;;85.20;6.70;;;11.60;99.90;;;;;;5036284;28;20196;-80
2023/03/12 13:36:16;;;;;;;74.03;7.60;;;11.70;99.90;;;;;;5036280;28;20157;-80
2023/03/12 13:43:51;;;;;;;78.22;7.72;;;11.70;99.90;;;;;;5149230;23;20230;-80
2023/03/12 13:46:40;;;;;;;81.00;7.10;;;11.80;99.90;;;;;;5057524;28;20169;-80
2023/03/12 13:49:16;;;;;;;76.00;7.05;;;11.90;99.90;;;;;;5039459;28;20229;-80
2023/03/12 13:52:21;;;;;;;77.35;6.43;;;11.90;99.90;;;;;;5057005;28;20223;-80
2023/03/12 13:55:17;;;;;;;74.45;7.03;;;11.90;99.90;;;;;;5054454;28;20164;-79
2023/03/12 13:58:14;;;;;;;77.63;6.15;;;11.90;99.90;;;;;;5050234;28;20298;-80
2023/03/12 14:01:02;;;;;;;74.88;7.43;;;11.90;99.90;;;;;;5057099;28;20236;-80
2023/03/12 14:04:03;;;;;;;;;;;;;;;;;;;;;